Time;durP1;ratioP1;P1;durP2;ratioP2;P2;SDS_P1;SDS_P2;PMS_P1;PMS_P2;Temp;Humidity;BMP_temperature;BMP_pressure;BME280_temperature;BME280_humidity;BME280_pressure;Samples;Min_cycle;Max_cycle;Signal;HPM_P1;HPM_P2
2021/12/27 00:00:19;;;;;;;78.83;40.83;;;4.00;99.90;;;4.04;100.00;100043.34;5115198;28;20043;-68
2021/12/27 00:02:50;;;;;;;64.57;36.97;;;4.00;99.90;;;4.09;100.00;100044.25;5097445;28;20043;-68
2021/12/27 00:05:19;;;;;;;67.13;35.57;;;4.00;99.90;;;3.83;100.00;99989.13;5115482;28;20062;-67
2021/12/27 00:07:51;;;;;;;66.37;37.80;;;4.10;99.90;;;4.31;100.00;100036.59;5115603;28;20418;-69
2021/12/27 00:10:21;;;;;;;67.70;38.27;;;4.20;99.90;;;4.37;100.00;100035.75;5115873;28;20075;-71
2021/12/27 00:12:52;;;;;;;76.28;40.55;;;4.30;99.90;;;4.44;100.00;100025.34;5116034;28;20093;-67
2021/12/27 00:15:21;;;;;;;74.27;38.40;;;4.40;99.90;;;4.44;100.00;100032.31;5115758;28;20104;-71
2021/12/27 00:17:50;;;;;;;71.67;38.60;;;4.40;99.90;;;4.36;100.00;100036.59;5115624;28;20035;-71
2021/12/27 00:20:20;;;;;;;76.73;38.27;;;4.30;99.90;;;4.37;100.00;100026.19;5115222;28;20039;-71
2021/12/27 00:22:52;;;;;;;69.90;36.63;;;4.30;99.90;;;4.38;100.00;100027.91;5115370;28;20390;-71
2021/12/27 00:25:21;;;;;;;66.03;38.13;;;4.30;99.90;;;4.51;100.00;100024.50;5115835;28;20459;-72
2021/12/27 00:27:49;;;;;;;68.23;36.77;;;4.40;99.90;;;4.49;100.00;100018.38;5115642;28;20134;-72
2021/12/27 00:30:20;;;;;;;73.30;37.87;;;4.50;99.90;;;4.56;100.00;100007.09;5115508;28;20042;-72
2021/12/27 00:32:49;;;;;;;69.97;35.53;;;4.50;99.90;;;4.59;100.00;100016.69;5115516;28;20130;-72
2021/12/27 00:35:19;;;;;;;60.07;34.53;;;4.50;99.90;;;4.65;100.00;100008.88;5115304;28;20122;-71
2021/12/27 00:37:48;;;;;;;80.43;37.40;;;4.50;99.90;;;4.48;100.00;99998.31;5115389;28;20055;-72
2021/12/27 00:40:17;;;;;;;70.80;34.93;;;4.50;99.90;;;4.46;100.00;99999.16;5114894;28;20552;-72
2021/12/27 00:42:46;;;;;;;61.90;35.47;;;4.50;99.90;;;4.54;100.00;100003.59;5115206;28;20454;-72
2021/12/27 00:45:14;;;;;;;64.50;34.40;;;4.50;99.90;;;4.23;100.00;99943.19;5115268;28;20039;-72
2021/12/27 00:47:43;;;;;;;65.90;35.90;;;4.50;99.90;;;4.59;100.00;99994.00;5114856;28;20043;-72
2021/12/27 00:50:12;;;;;;;63.50;35.53;;;4.50;99.90;;;4.62;100.00;99979.19;5114880;28;20078;-72
2021/12/27 00:52:40;;;;;;;58.23;33.77;;;4.50;99.90;;;4.83;100.00;99979.28;5114833;28;20071;-72
2021/12/27 00:55:12;;;;;;;55.20;33.23;;;4.70;99.90;;;4.70;100.00;99959.16;5115019;28;20460;-72
2021/12/27 00:57:42;;;;;;;54.77;32.37;;;4.80;99.90;;;4.81;100.00;99975.78;5115447;28;20055;-72
2021/12/27 01:00:15;;;;;;;54.13;32.70;;;4.80;99.90;;;4.86;100.00;99971.44;5114717;28;20040;-71
2021/12/27 01:02:45;;;;;;;53.00;32.87;;;4.80;99.90;;;4.96;100.00;99971.47;5115131;28;20176;-72
2021/12/27 01:05:15;;;;;;;51.80;32.70;;;4.90;99.90;;;4.90;100.00;99975.78;5115190;28;20058;-72
2021/12/27 01:07:44;;;;;;;51.60;31.63;;;4.90;99.90;;;4.76;100.00;99959.19;5114753;28;20120;-71
2021/12/27 01:10:47;;;;;;;68.37;34.57;;;4.80;99.90;;;4.65;100.00;99953.88;5114403;28;20122;-71
2021/12/27 01:13:25;;;;;;;53.50;33.37;;;4.60;99.90;;;4.71;100.00;99958.25;5114108;28;20043;-71
2021/12/27 01:16:10;;;;;;;67.43;35.37;;;4.70;99.90;;;4.70;100.00;99959.16;5114724;28;20139;-71
2021/12/27 01:18:46;;;;;;;55.07;32.70;;;4.70;99.90;;;4.73;100.00;99952.16;5114926;28;20052;-72
2021/12/27 01:21:17;;;;;;;64.17;35.50;;;4.70;99.90;;;4.65;100.00;99948.63;5114258;28;20043;-71
2021/12/27 01:23:46;;;;;;;69.93;36.13;;;4.60;99.90;;;4.71;100.00;99935.56;5114738;28;20035;-72
2021/12/27 01:26:15;;;;;;;57.47;34.47;;;4.70;99.90;;;4.88;100.00;99940.88;5114665;28;20112;-71
2021/12/27 01:28:45;;;;;;;61.33;35.37;;;4.80;99.90;;;4.86;100.00;99940.00;5114363;28;20127;-71
2021/12/27 01:31:14;;;;;;;56.40;33.30;;;4.80;99.90;;;4.77;100.00;99939.94;5114270;28;20097;-71
2021/12/27 01:33:44;;;;;;;64.30;36.30;;;4.80;99.90;;;4.96;100.00;99941.75;5113942;28;20047;-71
2021/12/27 01:36:13;;;;;;;63.92;35.72;;;4.80;99.90;;;4.90;100.00;99940.00;5114507;28;20108;-71
2021/12/27 01:38:42;;;;;;;53.37;32.43;;;4.90;99.90;;;4.82;100.00;99943.47;5113771;28;20131;-72
2021/12/27 01:41:14;;;;;;;57.03;33.53;;;4.80;99.90;;;4.73;100.00;99940.81;5113936;28;20043;-72
2021/12/27 01:43:45;;;;;;;56.90;34.77;;;4.70;99.90;;;4.67;100.00;99932.94;5113791;28;20382;-72
2021/12/27 01:46:17;;;;;;;50.53;31.67;;;4.70;99.90;;;4.86;100.00;99953.09;5113723;28;20481;-71
2021/12/27 01:48:54;;;;;;;54.57;34.20;;;4.70;99.90;;;4.85;100.00;99961.81;5114303;28;20085;-72
2021/12/27 01:51:25;;;;;;;53.73;32.00;;;4.70;99.90;;;4.96;100.00;99960.97;5113615;28;20079;-72
2021/12/27 01:53:54;;;;;;;55.43;31.97;;;4.80;99.90;;;4.98;100.00;99948.75;5095436;28;20048;-72
2021/12/27 01:56:24;;;;;;;49.63;31.93;;;4.90;99.90;;;5.20;100.00;99954.94;5113553;28;20496;-71
2021/12/27 01:58:56;;;;;;;48.90;30.00;;;5.00;99.90;;;5.23;100.00;99963.69;5113548;28;20455;-71
2021/12/27 02:01:26;;;;;;;46.50;30.93;;;5.10;99.90;;;5.18;100.00;99957.56;5113794;28;20538;-71
2021/12/27 02:03:56;;;;;;;53.15;30.88;;;5.00;99.90;;;5.34;100.00;99958.47;5095469;28;20084;-72
2021/12/27 02:06:26;;;;;;;51.47;30.77;;;5.20;99.90;;;5.36;100.00;99951.50;5114056;28;20093;-71
2021/12/27 02:08:54;;;;;;;45.67;29.63;;;5.30;99.90;;;5.37;100.00;99959.34;5113372;28;20454;-71
2021/12/27 02:11:26;;;;;;;47.97;29.97;;;5.30;99.90;;;5.27;100.00;99954.97;5112702;28;20040;-72
2021/12/27 02:13:58;;;;;;;48.00;29.57;;;5.20;99.90;;;5.25;100.00;99958.44;5113248;28;20047;-71
2021/12/27 02:16:26;;;;;;;48.10;30.57;;;5.10;99.90;;;5.26;100.00;99949.72;5112898;28;20519;-71
2021/12/27 02:18:55;;;;;;;41.73;28.20;;;5.10;99.90;;;5.19;100.00;99916.47;5112847;28;20058;-71
2021/12/27 02:21:26;;;;;;;47.03;30.43;;;5.20;99.90;;;5.43;100.00;99959.38;5094636;28;20047;-71
2021/12/27 02:23:57;;;;;;;44.97;27.73;;;5.20;99.90;;;5.33;100.00;99933.13;5113280;28;20070;-71
2021/12/27 02:26:25;;;;;;;44.83;28.23;;;5.30;99.90;;;5.41;100.00;99955.88;5113180;28;20051;-71
2021/12/27 02:28:54;;;;;;;52.60;28.47;;;5.30;99.90;;;5.55;100.00;99960.25;5113050;28;20533;-71
2021/12/27 02:31:22;;;;;;;50.50;28.37;;;5.40;99.90;;;5.42;100.00;99954.09;5094408;28;20075;-71
2021/12/27 02:33:51;;;;;;;50.47;26.07;;;5.30;99.90;;;5.50;100.00;99960.22;5112472;28;20047;-71
2021/12/27 02:36:24;;;;;;;48.73;26.87;;;5.30;99.90;;;5.60;100.00;99956.75;5112387;28;20048;-71
2021/12/27 02:38:54;;;;;;;65.37;26.53;;;5.40;99.90;;;5.66;100.00;99962.00;5112447;28;20036;-72
2021/12/27 02:41:22;;;;;;;57.42;27.33;;;5.50;99.90;;;5.71;100.00;99960.25;5112539;28;20051;-71
2021/12/27 02:43:50;;;;;;;48.60;26.70;;;5.50;99.90;;;5.63;100.00;99951.53;5112320;28;20086;-71
2021/12/27 02:46:19;;;;;;;61.10;26.73;;;5.50;99.90;;;5.64;100.00;99937.53;5094019;28;20073;-72
2021/12/27 02:48:49;;;;;;;76.90;29.13;;;5.50;99.90;;;5.57;100.00;99945.38;5112236;28;20425;-71
2021/12/27 02:51:19;;;;;;;66.13;29.50;;;5.50;99.90;;;5.55;100.00;99941.88;5112348;28;20062;-72
2021/12/27 02:53:49;;;;;;;65.97;28.60;;;5.40;99.90;;;5.59;100.00;99936.66;5112412;28;20466;-71
2021/12/27 02:56:20;;;;;;;99.78;30.27;;;5.40;99.90;;;5.54;100.00;99927.88;5112361;28;20047;-72
2021/12/27 02:58:48;;;;;;;;;;;5.40;99.90;;;5.40;100.00;99920.00;5094684;28;20101;-72
2021/12/27 03:01:19;;;;;;;74.73;31.40;;;5.30;99.90;;;5.40;100.00;99917.41;5112479;28;19920;-72
2021/12/27 03:03:48;;;;;;;95.70;30.30;;;5.30;99.90;;;5.40;100.00;99913.91;5112587;28;20049;-72
2021/12/27 03:06:17;;;;;;;114.60;33.47;;;5.30;99.90;;;5.37;100.00;99908.66;5112268;28;20122;-72
2021/12/27 03:08:48;;;;;;;134.90;34.37;;;5.30;99.90;;;5.22;100.00;99921.75;5112386;28;20043;-72
2021/12/27 03:11:17;;;;;;;118.30;32.73;;;5.20;99.90;;;5.34;100.00;99912.13;5112443;28;20481;-72
2021/12/27 03:13:50;;;;;;;92.03;33.93;;;5.20;99.90;;;5.12;100.00;99870.19;5112379;28;20081;-72
2021/12/27 03:16:23;;;;;;;86.27;34.77;;;5.20;99.90;;;5.34;100.00;99882.44;5112114;28;20039;-72
2021/12/27 03:18:55;;;;;;;107.40;36.43;;;5.30;99.90;;;5.47;100.00;99903.44;5112664;28;20036;-72
2021/12/27 03:21:26;;;;;;;108.73;36.10;;;5.40;99.90;;;5.37;100.00;99909.53;5093763;28;20047;-72
2021/12/27 03:23:55;;;;;;;91.50;35.63;;;5.40;99.90;;;4.86;100.00;99780.22;5115818;28;20514;-72
2021/12/27 03:26:28;;;;;;;79.07;33.67;;;5.40;99.90;;;5.73;100.00;99890.28;5116278;28;20497;-72
2021/12/27 03:28:57;;;;;;;104.73;34.70;;;5.60;99.90;;;5.77;100.00;99891.19;5097895;28;20142;-72
2021/12/27 03:31:26;;;;;;;125.70;36.83;;;5.70;99.90;;;5.84;100.00;99883.34;5116390;28;20120;-72
2021/12/27 03:33:55;;;;;;;102.67;35.73;;;5.70;99.90;;;6.02;100.00;99888.53;5116357;28;20038;-72
2021/12/27 03:36:24;;;;;;;98.10;33.13;;;5.90;99.90;;;5.93;100.00;99893.81;5116544;28;20044;-72
2021/12/27 03:38:53;;;;;;;61.53;32.00;;;5.80;99.90;;;6.03;100.00;99899.91;5116223;28;20475;-72
2021/12/27 03:41:25;;;;;;;66.93;35.27;;;5.80;99.90;;;6.21;100.00;99900.72;5116400;28;20128;-72
2021/12/27 03:43:54;;;;;;;70.60;31.67;;;6.00;99.90;;;6.26;100.00;99898.97;5116263;28;20129;-72
2021/12/27 03:46:23;;;;;;;91.63;32.33;;;6.10;99.90;;;6.06;100.00;99895.53;5116233;28;20479;-72
2021/12/27 03:48:52;;;;;;;94.45;31.65;;;6.00;99.90;;;6.00;100.00;99897.31;5116193;28;20047;-72
2021/12/27 03:51:21;;;;;;;97.43;31.20;;;5.90;99.90;;;5.89;100.00;99888.56;5098323;28;20338;-73
2021/12/27 03:53:50;;;;;;;100.10;32.63;;;5.80;99.90;;;5.94;100.00;99885.03;5116647;28;20085;-73
2021/12/27 03:56:23;;;;;;;81.73;31.70;;;5.80;99.90;;;5.94;100.00;99881.56;5115747;28;20059;-72
2021/12/27 03:58:57;;;;;;;120.47;34.53;;;5.80;99.90;;;6.02;100.00;99882.44;5115917;28;20130;-72
2021/12/27 04:01:29;;;;;;;99.27;34.90;;;5.90;99.90;;;6.06;100.00;99864.03;5115815;28;20489;-72
2021/12/27 04:03:58;;;;;;;92.95;32.70;;;5.90;99.90;;;6.18;100.00;99856.13;5115847;28;20052;-73
2021/12/27 04:06:28;;;;;;;73.40;34.60;;;6.10;99.90;;;6.23;100.00;99851.72;5115932;28;20045;-72
2021/12/27 04:08:57;;;;;;;69.43;32.70;;;6.10;99.90;;;6.42;100.00;99862.16;5116560;28;20047;-72
2021/12/27 04:11:25;;;;;;;79.07;31.87;;;6.30;99.90;;;6.54;100.00;99863.00;5116080;28;20497;-72
2021/12/27 04:13:59;;;;;;;83.60;33.20;;;6.50;99.90;;;6.50;100.00;99873.53;5115639;28;20066;-72
2021/12/27 04:16:29;;;;;;;57.53;33.50;;;6.50;99.90;;;6.61;100.00;99867.34;5115471;28;20082;-72
2021/12/27 04:18:57;;;;;;;60.83;31.88;;;6.50;99.90;;;6.66;100.00;99864.69;5115551;28;20143;-72
2021/12/27 04:21:26;;;;;;;54.00;31.48;;;6.60;99.90;;;6.67;100.00;99853.28;5115507;28;20039;-73
2021/12/27 04:23:54;;;;;;;54.80;31.48;;;6.60;99.90;;;6.81;100.00;99854.97;5115219;28;20554;-73
2021/12/27 04:26:23;;;;;;;47.55;29.90;;;6.70;99.90;;;6.92;100.00;99858.41;5115401;28;20230;-73
2021/12/27 04:28:52;;;;;;;67.55;30.88;;;6.80;99.90;;;6.53;100.00;99798.19;5115417;28;20096;-73
2021/12/27 04:31:20;;;;;;;47.00;30.33;;;6.80;99.90;;;6.86;100.00;99839.16;5115042;28;20147;-73
2021/12/27 04:33:50;;;;;;;54.50;30.55;;;6.80;99.90;;;6.98;100.00;99836.47;5114281;28;20054;-72
2021/12/27 04:36:19;;;;;;;52.45;29.80;;;6.90;99.90;;;7.05;100.00;99835.53;5115059;28;20469;-72
2021/12/27 04:38:47;;;;;;;63.85;31.25;;;7.00;99.90;;;7.11;99.67;99838.13;5114894;28;20123;-72
2021/12/27 04:41:21;;;;;;;93.90;29.48;;;7.10;99.90;;;6.71;99.27;99849.78;5096606;28;20073;-73
2021/12/27 04:43:50;;;;;;;55.65;30.20;;;6.80;99.90;;;6.83;100.00;99853.19;5096671;28;20489;-73
2021/12/27 04:46:18;;;;;;;50.30;29.08;;;6.70;99.90;;;7.00;100.00;99846.09;5114725;28;20046;-73
2021/12/27 04:48:50;;;;;;;57.72;30.20;;;6.90;99.90;;;7.06;99.57;99839.91;5096613;28;20089;-73
2021/12/27 04:51:21;;;;;;;46.35;29.38;;;7.00;99.90;;;6.99;99.42;99810.16;5114724;28;20488;-73
2021/12/27 04:53:50;;;;;;;48.53;27.85;;;7.00;99.90;;;7.21;99.01;99837.16;5096595;28;20051;-73
2021/12/27 04:56:19;;;;;;;46.13;27.65;;;7.10;99.90;;;7.13;98.87;99824.09;5114908;28;20409;-73
2021/12/27 04:58:47;;;;;;;97.03;30.08;;;7.10;99.90;;;7.05;98.23;99811.88;5096616;28;20248;-73
2021/12/27 05:01:16;;;;;;;50.60;29.38;;;7.20;99.90;;;7.10;98.81;99831.13;5115009;28;20035;-73
2021/12/27 05:03:45;;;;;;;52.20;28.88;;;7.10;99.90;;;7.16;98.70;99828.47;5114876;28;20405;-73
2021/12/27 05:06:14;;;;;;;95.35;30.80;;;7.10;99.90;;;7.07;98.43;99818.88;5114493;28;20040;-73
2021/12/27 05:08:44;;;;;;;91.70;31.75;;;7.10;99.90;;;7.00;98.69;99817.19;5114205;28;20074;-73
2021/12/27 05:11:12;;;;;;;108.63;31.98;;;7.10;99.90;;;7.00;99.11;99824.19;5114536;28;20043;-73
2021/12/27 05:13:40;;;;;;;116.60;32.50;;;7.00;99.90;;;6.60;99.67;99812.19;5114217;28;20043;-73
2021/12/27 05:16:09;;;;;;;97.25;33.58;;;6.70;99.90;;;6.59;100.00;99815.69;5114422;28;20100;-73
2021/12/27 05:18:38;;;;;;;101.47;33.95;;;6.60;99.90;;;6.55;100.00;99806.06;5114355;28;20028;-73
2021/12/27 05:21:06;;;;;;;124.28;36.90;;;6.60;99.90;;;6.53;100.00;99798.19;5114197;28;20052;-73
2021/12/27 05:23:35;;;;;;;161.63;38.17;;;6.50;99.90;;;6.57;100.00;99812.19;5113859;28;20044;-73
2021/12/27 05:26:04;;;;;;;124.23;36.10;;;6.50;99.90;;;6.59;100.00;99805.16;5113809;28;20043;-73
2021/12/27 05:28:33;;;;;;;107.28;36.05;;;6.50;99.90;;;6.48;100.00;99800.00;5114080;28;20067;-73
2021/12/27 05:31:02;;;;;;;89.20;33.45;;;6.50;99.90;;;6.43;100.00;99803.53;5113685;28;20063;-73
2021/12/27 05:33:31;;;;;;;110.55;36.13;;;6.30;99.90;;;6.39;100.00;99805.28;5113790;28;20059;-73
2021/12/27 05:35:59;;;;;;;116.20;34.65;;;6.30;99.90;;;6.16;100.00;99812.38;5113813;28;20092;-72
2021/12/27 05:38:28;;;;;;;127.50;35.53;;;6.10;99.90;;;6.18;100.00;99811.50;5113776;28;20044;-72
2021/12/27 05:40:57;;;;;;;93.30;34.08;;;6.10;99.90;;;6.16;100.00;99784.38;5113614;28;20416;-73
2021/12/27 05:43:27;;;;;;;85.90;36.25;;;6.20;99.90;;;5.96;100.00;99728.47;5113365;28;20043;-73
2021/12/27 05:45:56;;;;;;;109.88;35.10;;;6.30;99.90;;;6.37;100.00;99807.91;5113341;28;20044;-72
2021/12/27 05:48:25;;;;;;;89.70;35.08;;;6.30;99.90;;;6.50;100.00;99807.84;5113525;28;20040;-73
2021/12/27 05:50:53;;;;;;;79.57;36.33;;;6.30;99.90;;;6.30;100.00;99806.22;5113423;28;20072;-73
2021/12/27 05:53:21;;;;;;;109.22;35.85;;;6.40;99.90;;;6.69;100.00;99818.25;5113383;28;20130;-73
2021/12/27 05:55:51;;;;;;;70.15;36.45;;;6.50;99.90;;;6.83;100.00;99819.03;5113203;28;20104;-72
2021/12/27 05:58:19;;;;;;;105.00;36.58;;;6.60;99.90;;;6.74;100.00;99818.22;5113635;28;20063;-73
2021/12/27 06:00:49;;;;;;;118.82;38.63;;;6.60;99.90;;;6.79;100.00;99816.44;5113284;28;20069;-72
2021/12/27 06:03:18;;;;;;;87.03;37.10;;;6.60;99.90;;;6.84;100.00;99826.03;5095300;28;20100;-73
2021/12/27 06:05:47;;;;;;;113.93;38.65;;;6.70;99.90;;;6.84;100.00;99815.53;5113285;28;20043;-73
2021/12/27 06:08:15;;;;;;;126.13;39.00;;;6.60;99.90;;;6.97;100.00;99817.19;5113219;28;20046;-73
2021/12/27 06:10:44;;;;;;;120.07;37.70;;;6.70;99.90;;;6.87;100.00;99818.13;5113394;28;20126;-72
2021/12/27 06:13:12;;;;;;;147.00;38.45;;;6.70;99.90;;;6.78;100.00;99814.69;5112996;28;20056;-73
2021/12/27 06:15:41;;;;;;;135.15;39.42;;;6.60;99.90;;;6.76;100.00;99806.81;5113051;28;20031;-72
2021/12/27 06:18:10;;;;;;;192.07;39.55;;;6.60;99.90;;;6.23;100.00;99719.59;5113434;28;20108;-73
2021/12/27 06:20:39;;;;;;;117.15;38.75;;;6.60;99.90;;;6.80;100.00;99807.66;5112975;28;20065;-73
2021/12/27 06:23:08;;;;;;;142.35;40.10;;;6.60;99.90;;;6.87;100.00;99809.38;5113192;28;20377;-72
2021/12/27 06:25:36;;;;;;;118.97;41.90;;;6.60;99.90;;;6.94;100.00;99816.34;5113733;28;20423;-72
2021/12/27 06:28:05;;;;;;;102.28;39.30;;;6.70;99.90;;;6.95;100.00;99792.66;5113308;28;20135;-72
2021/12/27 06:30:33;;;;;;;111.75;38.83;;;6.90;99.90;;;7.17;100.00;99809.16;5113043;28;20504;-72
2021/12/27 06:33:02;;;;;;;96.22;38.63;;;7.00;99.90;;;7.21;100.00;99810.88;5112918;28;20134;-72
2021/12/27 06:35:32;;;;;;;145.73;39.58;;;7.00;99.90;;;7.18;100.00;99821.44;5112926;28;20073;-72
2021/12/27 06:38:01;;;;;;;77.65;37.40;;;7.00;99.90;;;7.32;100.00;99814.28;5113194;28;20070;-72
2021/12/27 06:40:30;;;;;;;85.82;38.30;;;7.20;99.90;;;7.46;100.00;99819.44;5094826;28;20154;-72
2021/12/27 06:43:00;;;;;;;115.53;37.58;;;7.30;99.90;;;7.50;100.00;99818.50;5113095;28;20047;-73
2021/12/27 06:45:29;;;;;;;148.82;39.50;;;7.40;99.90;;;7.34;100.00;99796.72;5113372;28;20040;-72
2021/12/27 06:47:57;;;;;;;143.98;40.25;;;7.40;99.90;;;7.57;100.00;99815.81;5112638;28;20118;-73
2021/12/27 06:50:25;;;;;;;99.50;37.03;;;7.50;99.90;;;7.70;100.00;99809.56;5112518;28;20078;-73
2021/12/27 06:52:55;;;;;;;126.70;39.45;;;7.60;99.90;;;7.68;100.00;99824.50;5112568;28;20439;-73
2021/12/27 06:55:24;;;;;;;119.30;38.63;;;7.60;99.90;;;7.26;100.00;99730.19;5112779;28;20082;-73
2021/12/27 06:57:52;;;;;;;150.65;37.55;;;7.70;99.90;;;7.63;100.00;99817.50;5112314;28;20338;-72
2021/12/27 07:00:21;;;;;;;111.43;37.67;;;7.60;99.90;;;7.69;100.00;99818.31;5112687;28;20090;-72
2021/12/27 07:02:49;;;;;;;202.43;38.47;;;7.60;99.90;;;7.69;100.00;99815.69;5112322;28;20583;-72
2021/12/27 07:05:18;;;;;;;115.40;38.88;;;7.60;99.90;;;7.67;100.00;99806.94;5112370;28;20069;-72
2021/12/27 07:07:47;;;;;;;172.38;38.33;;;7.60;99.90;;;7.64;100.00;99801.72;5112339;28;20043;-72
2021/12/27 07:10:19;;;;;;;166.48;40.83;;;7.60;99.90;;;7.61;100.00;99800.84;5112143;28;20203;-72
2021/12/27 07:12:47;;;;;;;151.82;39.25;;;7.50;99.90;;;7.54;100.00;99807.06;5112298;28;20055;-72
2021/12/27 07:15:16;;;;;;;150.45;41.72;;;7.50;99.90;;;7.37;100.00;99796.72;5112410;28;20122;-72
2021/12/27 07:17:44;;;;;;;122.25;39.58;;;7.30;99.90;;;7.42;100.00;99800.16;5094248;28;20179;-73
2021/12/27 07:20:13;;;;;;;184.20;40.92;;;7.30;99.90;;;7.40;100.00;99806.31;5112219;28;20043;-72
2021/12/27 07:22:42;;;;;;;141.70;40.70;;;7.30;99.90;;;7.33;100.00;99795.00;5112130;28;20542;-73
2021/12/27 07:25:10;;;;;;;169.77;40.88;;;7.20;99.90;;;7.22;100.00;99794.19;5112277;28;20072;-74
2021/12/27 07:27:40;;;;;;;190.95;44.55;;;7.10;99.90;;;7.20;100.00;99798.63;5112158;28;20083;-73
2021/12/27 07:30:12;;;;;;;156.85;41.22;;;7.10;99.90;;;7.26;100.00;99795.91;5113254;28;20075;-73
2021/12/27 07:32:41;;;;;;;227.43;43.70;;;7.10;99.90;;;7.25;100.00;99792.44;5112517;28;20043;-73
2021/12/27 07:35:10;;;;;;;198.60;42.33;;;7.10;99.90;;;7.33;100.00;99792.38;5112466;28;20449;-73
2021/12/27 07:37:39;;;;;;;213.13;45.00;;;7.20;99.90;;;7.27;100.00;99785.41;5112191;28;20048;-73
2021/12/27 07:40:10;;;;;;;218.52;41.65;;;7.20;99.90;;;7.21;100.00;99787.22;5112059;28;20075;-73
2021/12/27 07:42:40;;;;;;;223.98;40.80;;;7.10;99.90;;;7.18;100.00;99787.25;5111946;28;20043;-74
2021/12/27 07:45:09;;;;;;;190.52;39.75;;;7.10;99.90;;;6.61;100.00;99700.97;5112160;28;20408;-73
2021/12/27 07:47:38;;;;;;;243.07;41.70;;;7.10;99.90;;;7.22;100.00;99786.31;5112044;28;20047;-73
2021/12/27 07:50:08;;;;;;;222.25;44.03;;;7.10;99.90;;;7.19;100.00;99788.97;5112339;28;20122;-74
2021/12/27 07:52:37;;;;;;;203.60;43.25;;;7.10;99.90;;;7.20;100.00;99777.59;5112055;28;20446;-73
2021/12/27 07:55:07;;;;;;;174.25;40.85;;;7.10;99.90;;;7.16;100.00;99781.97;5112284;28;20047;-73
2021/12/27 07:57:36;;;;;;;229.68;43.15;;;7.00;99.90;;;7.12;100.00;99782.88;5112461;28;20055;-74
2021/12/27 08:00:09;;;;;;;240.45;44.88;;;7.00;99.90;;;7.07;100.00;99789.06;5111872;28;20052;-73
2021/12/27 08:02:38;;;;;;;189.32;43.35;;;7.00;99.90;;;7.12;100.00;99779.41;5112394;28;20090;-73
2021/12/27 08:05:07;;;;;;;171.80;42.92;;;7.00;99.90;;;6.41;100.00;99713.38;5111856;28;20135;-74
2021/12/27 08:07:36;;;;;;;207.60;44.58;;;7.00;99.90;;;7.16;100.00;99787.25;5111895;28;20040;-73
2021/12/27 08:10:07;;;;;;;165.60;44.33;;;7.10;99.90;;;7.31;100.00;99783.63;5115091;28;20086;-73
2021/12/27 08:12:35;;;;;;;196.10;44.78;;;7.10;99.90;;;7.25;100.00;99775.78;5115556;28;20101;-73
2021/12/27 08:15:07;;;;;;;255.77;46.20;;;7.10;99.90;;;7.22;100.00;99766.16;5115491;28;20096;-73
2021/12/27 08:17:36;;;;;;;248.77;44.78;;;7.10;99.90;;;7.25;100.00;99763.50;5116169;28;20065;-74
2021/12/27 08:20:08;;;;;;;261.80;47.00;;;7.10;99.90;;;7.02;100.00;99727.78;5115452;28;20040;-73
2021/12/27 08:22:36;;;;;;;310.70;48.60;;;7.10;99.90;;;7.08;100.00;99768.03;5114973;28;20047;-73
2021/12/27 08:25:07;;;;;;;242.07;49.92;;;7.20;99.90;;;7.37;100.00;99749.38;5096257;28;20074;-73
2021/12/27 08:27:37;;;;;;;;;;;7.20;99.90;;;7.55;100.00;99764.97;5115442;28;20071;-73
2021/12/27 08:30:10;;;;;;;236.27;44.53;;;7.30;99.90;;;7.57;100.00;99760.56;5114755;28;19989;-75
2021/12/27 08:32:42;;;;;;;198.15;46.22;;;7.40;99.90;;;7.56;100.00;99766.72;5115034;28;20289;-80
2021/12/27 08:35:12;;;;;;;230.63;48.10;;;7.40;99.90;;;7.46;100.00;99733.50;5115030;28;20054;-79
2021/12/27 08:37:42;;;;;;;212.52;46.67;;;7.40;99.90;;;7.65;100.00;99757.84;5114785;28;20485;-78
2021/12/27 08:40:12;;;;;;;255.18;45.70;;;7.50;99.90;;;7.64;100.00;99759.63;5114617;28;20448;-77
2021/12/27 08:42:41;;;;;;;222.10;43.65;;;7.50;99.90;;;7.55;100.00;99737.81;5114926;28;20097;-74
2021/12/27 08:45:12;;;;;;;338.70;49.30;;;7.50;99.90;;;7.58;100.00;99736.00;5114428;28;20039;-73
2021/12/27 08:47:41;;;;;;;245.00;46.30;;;7.40;99.90;;;7.46;100.00;99728.25;5114522;28;20067;-74
2021/12/27 08:50:12;;;;;;;245.57;47.83;;;7.50;99.90;;;7.51;100.00;99710.63;5113183;28;20426;-75
2021/12/27 08:52:42;;;;;;;217.02;47.67;;;7.50;99.90;;;7.60;100.00;99726.34;5115244;28;20052;-72
2021/12/27 08:55:11;;;;;;;239.13;46.88;;;7.50;99.90;;;7.63;100.00;99725.41;5114476;28;20048;-73
2021/12/27 08:57:41;;;;;;;331.90;50.67;;;7.50;99.90;;;7.75;100.00;99727.91;5114233;28;20067;-76
2021/12/27 09:00:14;;;;;;;202.13;45.25;;;7.60;99.90;;;7.67;100.00;99735.91;5114210;28;20609;-70
2021/12/27 09:02:43;;;;;;;184.80;43.78;;;7.60;99.90;;;7.74;100.00;99739.34;5114308;28;20047;-75
2021/12/27 09:05:12;;;;;;;129.00;47.22;;;7.60;99.90;;;7.71;100.00;99744.63;5114377;28;20043;-74
2021/12/27 09:07:40;;;;;;;129.30;45.53;;;7.60;99.90;;;7.84;100.00;99749.72;5114079;28;20047;-74
2021/12/27 09:10:10;;;;;;;124.75;46.03;;;7.70;99.90;;;8.07;100.00;99765.28;5113999;28;20043;-72
2021/12/27 09:12:40;;;;;;;141.38;47.05;;;7.80;99.90;;;7.82;100.00;99748.88;5114164;28;20048;-73
2021/12/27 09:15:10;;;;;;;146.67;48.50;;;7.90;99.90;;;7.84;100.00;99760.25;5114045;28;20157;-73
2021/12/27 09:17:40;;;;;;;138.90;48.85;;;7.90;99.90;;;8.20;100.00;99788.81;5114558;28;20281;-73
2021/12/27 09:20:10;;;;;;;150.05;48.95;;;8.10;99.90;;;8.18;100.00;99781.81;5113362;28;20054;-70
2021/12/27 09:22:38;;;;;;;131.63;50.47;;;8.10;99.90;;;8.16;100.00;99773.06;5113915;28;20039;-72
2021/12/27 09:25:08;;;;;;;145.10;49.08;;;8.10;99.90;;;8.16;100.00;99765.16;5114119;28;20473;-69
2021/12/27 09:27:37;;;;;;;121.47;46.83;;;8.10;99.90;;;7.71;100.00;99676.19;5113832;28;20051;-70
2021/12/27 09:30:07;;;;;;;120.78;45.53;;;8.10;99.90;;;8.12;100.00;99764.31;5114347;28;20066;-70
2021/12/27 09:32:36;;;;;;;108.80;43.85;;;8.00;99.90;;;8.10;100.00;99752.94;5095708;28;20052;-70
2021/12/27 09:35:08;;;;;;;111.20;44.65;;;8.00;99.90;;;8.02;100.00;99748.66;5113653;28;20035;-71
2021/12/27 09:37:36;;;;;;;101.38;43.15;;;7.90;99.90;;;8.15;100.00;99759.00;5113642;28;20089;-69
2021/12/27 09:40:06;;;;;;;117.85;43.13;;;8.00;99.90;;;8.13;100.00;99755.53;5113623;28;20071;-69
2021/12/27 09:42:36;;;;;;;113.15;44.80;;;8.00;99.90;;;8.11;100.00;99740.63;5113993;28;20058;-71
2021/12/27 09:45:07;;;;;;;102.60;40.45;;;8.00;99.90;;;7.91;100.00;99733.00;5113418;28;20085;-71
2021/12/27 09:47:37;;;;;;;103.85;41.53;;;7.90;99.90;;;7.88;100.00;99718.97;5113855;28;20043;-68
2021/12/27 09:50:22;;;;;;;113.20;43.08;;;7.80;99.90;;;7.79;100.00;99717.34;5113812;28;20055;-71
2021/12/27 09:52:51;;;;;;;123.85;43.75;;;7.70;99.90;;;7.78;100.00;99720.84;5095979;28;20055;-72
2021/12/27 09:55:20;;;;;;;142.43;43.90;;;7.70;99.90;;;7.69;100.00;99710.44;5095359;28;20098;-67
2021/12/27 09:57:48;;;;;;;143.55;42.83;;;7.60;99.90;;;7.68;100.00;99713.97;5113879;28;20062;-69
2021/12/27 10:00:18;;;;;;;108.53;41.22;;;7.60;99.90;;;7.74;100.00;99720.91;5113171;28;20055;-67
2021/12/27 10:02:51;;;;;;;101.00;42.13;;;7.70;99.90;;;7.71;100.00;99711.28;5113161;28;20337;-73
2021/12/27 10:05:24;;;;;;;102.00;37.92;;;7.60;99.90;;;7.50;100.00;99708.91;5095179;28;20097;-72
2021/12/27 10:07:53;;;;;;;87.22;39.40;;;7.60;99.90;;;7.71;100.00;99721.81;5113153;28;20043;-71
2021/12/27 10:10:33;;;;;;;90.93;37.03;;;7.70;99.90;;;7.88;100.00;99733.00;5113187;28;20045;-80
2021/12/27 10:13:01;;;;;;;97.72;38.63;;;7.80;99.90;;;7.87;100.00;99723.38;5113414;28;20052;-81
2021/12/27 10:15:36;;;;;;;85.80;36.63;;;7.70;99.90;;;7.76;100.00;99722.63;5113003;28;20039;-82
2021/12/27 10:18:16;;;;;;;85.20;36.95;;;7.70;99.90;;;7.25;100.00;99624.16;5113034;28;20104;-80
2021/12/27 10:20:47;;;;;;;89.88;37.30;;;7.70;99.90;;;7.74;100.00;99724.41;5113178;28;20047;-82